createdAt,value
2023-02-02T00:01:21.473Z,1.80
2023-02-02T00:06:43.003Z,1.80
2023-02-02T00:12:04.854Z,1.80
2023-02-02T00:17:26.468Z,1.70
2023-02-02T00:22:47.996Z,1.80
2023-02-02T00:28:09.807Z,1.80
2023-02-02T00:33:31.595Z,1.80
2023-02-02T00:38:53.591Z,1.90
2023-02-02T00:44:33.832Z,1.90
2023-02-02T00:49:55.550Z,1.90
2023-02-02T00:55:17.871Z,1.90
2023-02-02T01:00:40.940Z,1.90
2023-02-02T01:06:02.948Z,1.90
2023-02-02T01:11:25.984Z,1.90
2023-02-02T01:16:48.151Z,2.00
2023-02-02T01:22:10.194Z,2.00
2023-02-02T01:27:32.036Z,1.90
2023-02-02T01:32:53.759Z,2.00
2023-02-02T01:38:16.006Z,2.00
2023-02-02T01:43:43.394Z,2.00
2023-02-02T01:49:19.413Z,2.00
2023-02-02T01:54:45.932Z,2.10
2023-02-02T02:00:11.779Z,2.00
2023-02-02T02:05:41.680Z,2.10
2023-02-02T02:11:03.351Z,2.00
2023-02-02T02:17:04.137Z,2.10
2023-02-02T02:22:51.355Z,2.10
2023-02-02T02:28:37.303Z,2.00
2023-02-02T02:34:22.358Z,2.00
2023-02-02T02:39:55.973Z,2.00
2023-02-02T02:45:18.692Z,1.90
2023-02-02T02:50:40.215Z,1.90
2023-02-02T02:56:14.967Z,1.90
2023-02-02T03:02:02.606Z,2.00
2023-02-02T03:07:41.724Z,2.00
2023-02-02T03:13:11.538Z,2.10
2023-02-02T03:18:33.961Z,2.10
2023-02-02T03:23:55.400Z,2.10
2023-02-02T03:29:18.207Z,2.10
2023-02-02T03:34:39.767Z,2.30
2023-02-02T03:40:01.905Z,2.20
2023-02-02T03:45:23.908Z,2.20
2023-02-02T03:50:45.531Z,2.30
2023-02-02T03:56:07.475Z,2.30
2023-02-02T04:01:30.587Z,2.30
2023-02-02T04:06:52.041Z,2.30
2023-02-02T04:12:13.582Z,2.30
2023-02-02T04:17:35.586Z,2.30
2023-02-02T04:22:56.857Z,2.30
2023-02-02T04:28:18.646Z,2.30
2023-02-02T04:33:40.236Z,2.30
2023-02-02T04:39:01.837Z,2.30
2023-02-02T04:44:23.515Z,2.30
2023-02-02T04:49:45.063Z,2.30
2023-02-02T04:55:06.931Z,2.30
2023-02-02T05:00:30.186Z,2.30
2023-02-02T05:05:51.794Z,2.30
2023-02-02T05:11:16.232Z,2.30
2023-02-02T05:16:39.798Z,2.30
2023-02-02T05:22:01.415Z,2.40
2023-02-02T05:27:23.156Z,2.30
2023-02-02T05:32:44.347Z,2.30
2023-02-02T05:38:06.061Z,2.30
2023-02-02T05:43:28.941Z,2.30
2023-02-02T05:48:50.297Z,2.30
2023-02-02T05:54:12.432Z,2.30
2023-02-02T05:59:33.950Z,2.30
2023-02-02T06:04:55.626Z,2.30
2023-02-02T06:10:17.370Z,2.30
2023-02-02T06:15:38.790Z,2.30
2023-02-02T06:21:01.445Z,2.30
2023-02-02T06:26:23.250Z,2.30
2023-02-02T06:31:44.654Z,2.30
2023-02-02T06:37:06.146Z,2.30
2023-02-02T06:42:27.848Z,2.30
2023-02-02T06:47:49.410Z,2.30
2023-02-02T06:53:10.913Z,2.30
2023-02-02T06:58:33.632Z,2.30
2023-02-02T07:03:55.134Z,2.30
2023-02-02T07:09:16.831Z,2.40
2023-02-02T07:14:38.377Z,2.40
2023-02-02T07:19:59.822Z,2.40
2023-02-02T07:25:21.666Z,2.40
2023-02-02T07:30:43.002Z,2.40
2023-02-02T07:36:04.571Z,2.50
2023-02-02T07:41:26.043Z,2.40
2023-02-02T07:46:48.413Z,2.50
2023-02-02T07:52:10.043Z,2.50
2023-02-02T07:57:31.677Z,2.50
2023-02-02T08:02:53.724Z,2.50
2023-02-02T08:08:15.447Z,2.50
2023-02-02T08:13:37.419Z,2.50
2023-02-02T08:18:59.864Z,2.60
2023-02-02T08:24:21.398Z,2.50
2023-02-02T08:29:43.321Z,2.70
2023-02-02T08:35:05.105Z,2.60
2023-02-02T08:40:26.748Z,2.70
2023-02-02T08:46:01.721Z,2.80
2023-02-02T08:51:26.141Z,2.80
2023-02-02T08:56:48.087Z,2.80
2023-02-02T09:02:14.015Z,2.90
2023-02-02T09:07:35.650Z,2.80
2023-02-02T09:12:57.304Z,2.80
2023-02-02T09:18:18.992Z,2.90
2023-02-02T09:23:42.395Z,2.90
2023-02-02T09:29:05.832Z,3.00
2023-02-02T09:34:27.213Z,3.10
2023-02-02T09:39:48.982Z,3.10
2023-02-02T09:45:40.090Z,3.20
2023-02-02T09:51:07.311Z,3.30
2023-02-02T09:56:36.688Z,3.30
2023-02-02T10:02:03.492Z,3.30
2023-02-02T10:07:38.087Z,3.30
2023-02-02T10:13:29.339Z,3.40
2023-02-02T10:19:02.171Z,3.40
2023-02-02T10:24:28.069Z,3.40
2023-02-02T10:29:59.623Z,3.50
2023-02-02T10:35:45.419Z,3.60
2023-02-02T10:41:53.341Z,3.70
2023-02-02T10:47:23.463Z,3.70
2023-02-02T10:52:54.581Z,3.80
2023-02-02T10:58:27.923Z,3.80
2023-02-02T11:04:10.098Z,3.70
2023-02-02T11:09:40.449Z,3.60
2023-02-02T11:15:29.624Z,3.80
2023-02-02T11:20:50.936Z,3.80
2023-02-02T11:26:12.511Z,3.70
2023-02-02T11:31:36.942Z,3.80
2023-02-02T11:37:01.248Z,3.90
2023-02-02T11:42:25.157Z,3.80
2023-02-02T11:47:47.380Z,3.70
2023-02-02T11:53:40.535Z,3.60
2023-02-02T11:59:04.299Z,3.80
2023-02-02T12:04:26.413Z,3.70
2023-02-02T12:09:48.257Z,3.50
2023-02-02T12:15:33.263Z,3.60
2023-02-02T12:21:07.675Z,3.60
2023-02-02T12:26:35.584Z,3.70
2023-02-02T12:32:21.949Z,3.70
2023-02-02T12:37:55.748Z,3.70
2023-02-02T12:43:34.257Z,3.80
2023-02-02T12:49:10.452Z,3.80
2023-02-02T12:55:05.163Z,3.70
2023-02-02T13:00:45.197Z,3.70
2023-02-02T13:06:32.778Z,4.10
2023-02-02T13:12:05.499Z,4.20
2023-02-02T13:17:42.888Z,3.90
2023-02-02T13:23:34.361Z,3.80
2023-02-02T13:29:01.698Z,3.70
2023-02-02T13:34:48.386Z,3.60
2023-02-02T13:40:27.566Z,3.60
2023-02-02T13:46:14.013Z,3.60
2023-02-02T13:51:54.020Z,3.60
2023-02-02T13:57:46.451Z,3.40
2023-02-02T14:03:53.412Z,3.50
2023-02-02T14:09:18.851Z,3.50
2023-02-02T14:14:46.082Z,3.50
2023-02-02T14:20:44.479Z,3.60
2023-02-02T14:26:10.576Z,3.60
2023-02-02T14:31:54.575Z,3.60
2023-02-02T14:37:25.406Z,3.50
2023-02-02T14:43:14.373Z,3.50
2023-02-02T14:48:38.636Z,3.40
2023-02-02T14:54:08.725Z,3.20
2023-02-02T14:59:38.710Z,3.10
2023-02-02T15:05:39.036Z,3.20
2023-02-02T15:11:00.544Z,3.00
2023-02-02T15:16:30.458Z,3.10
2023-02-02T15:21:58.332Z,3.00
2023-02-02T15:27:22.290Z,2.90
2023-02-02T15:32:45.949Z,3.00
2023-02-02T15:38:14.565Z,3.10
2023-02-02T15:43:36.686Z,3.00
2023-02-02T15:49:33.137Z,3.00
2023-02-02T15:54:58.368Z,2.90
2023-02-02T16:00:35.128Z,2.80
2023-02-02T16:05:58.496Z,2.90
2023-02-02T16:11:24.081Z,2.90
2023-02-02T16:16:47.606Z,2.90
2023-02-02T16:22:16.260Z,3.00
2023-02-02T16:27:38.357Z,2.80
2023-02-02T16:33:19.761Z,2.90
2023-02-02T16:38:41.247Z,3.00
2023-02-02T16:44:28.465Z,2.80
2023-02-02T16:49:49.811Z,2.80
2023-02-02T16:55:11.577Z,3.00
2023-02-02T17:00:33.700Z,2.80
2023-02-02T17:05:55.549Z,3.00
2023-02-02T17:11:31.117Z,2.80
2023-02-02T17:16:52.670Z,2.80
2023-02-02T17:22:15.293Z,2.80
2023-02-02T17:27:36.892Z,2.70
2023-02-02T17:32:58.599Z,2.70
2023-02-02T17:38:24.272Z,2.80
2023-02-02T17:43:45.560Z,2.70
2023-02-02T17:49:07.104Z,2.70
2023-02-02T17:54:28.441Z,2.60
2023-02-02T17:59:49.951Z,2.60
2023-02-02T18:05:13.633Z,2.60
2023-02-02T18:10:36.241Z,2.60
2023-02-02T18:15:59.843Z,2.50
2023-02-02T18:21:21.983Z,2.50
2023-02-02T18:26:43.297Z,2.40
2023-02-02T18:32:05.191Z,2.40
2023-02-02T18:37:26.853Z,2.30
2023-02-02T18:42:48.955Z,2.20
2023-02-02T18:48:10.554Z,2.20
2023-02-02T18:53:32.066Z,2.20
2023-02-02T18:58:53.812Z,2.10
2023-02-02T19:04:15.261Z,2.00
2023-02-02T19:09:36.988Z,2.20
2023-02-02T19:14:58.683Z,2.00
2023-02-02T19:20:25.780Z,2.10
2023-02-02T19:25:51.483Z,2.00
2023-02-02T19:31:15.524Z,2.00
2023-02-02T19:36:37.599Z,2.00
2023-02-02T19:42:00.560Z,2.10
2023-02-02T19:47:32.641Z,2.10
2023-02-02T19:52:55.030Z,2.10
2023-02-02T19:58:23.286Z,2.00
2023-02-02T20:03:46.781Z,2.10
2023-02-02T20:09:17.837Z,2.00
2023-02-02T20:14:39.581Z,2.10
2023-02-02T20:20:01.239Z,2.20
2023-02-02T20:25:23.189Z,2.10
2023-02-02T20:30:44.664Z,2.00
2023-02-02T20:36:28.994Z,2.00
2023-02-02T20:41:50.817Z,2.00
2023-02-02T20:47:12.153Z,2.00
2023-02-02T20:52:34.348Z,1.90
2023-02-02T20:57:55.714Z,2.00
2023-02-02T21:03:17.553Z,1.90
2023-02-02T21:08:39.112Z,2.00
2023-02-02T21:14:01.271Z,2.00
2023-02-02T21:19:22.790Z,1.90
2023-02-02T21:24:44.369Z,1.80
2023-02-02T21:30:06.485Z,1.80
2023-02-02T21:35:28.040Z,1.80
2023-02-02T21:40:51.695Z,1.80
2023-02-02T21:46:23.109Z,1.80
2023-02-02T21:51:44.472Z,1.80
2023-02-02T21:57:20.810Z,1.80
2023-02-02T22:02:46.821Z,1.80
2023-02-02T22:08:29.321Z,1.80
2023-02-02T22:13:51.174Z,1.90
2023-02-02T22:19:28.909Z,2.00
2023-02-02T22:25:31.756Z,2.00
2023-02-02T22:30:54.998Z,1.90
2023-02-02T22:36:16.746Z,2.00
2023-02-02T22:41:38.214Z,2.00
2023-02-02T22:46:59.908Z,2.00
2023-02-02T22:52:21.228Z,2.10
2023-02-02T22:57:42.903Z,2.00
2023-02-02T23:03:04.641Z,2.10
2023-02-02T23:08:26.038Z,1.90
2023-02-02T23:13:47.372Z,2.00
2023-02-02T23:19:08.858Z,1.90
2023-02-02T23:24:30.412Z,1.80
2023-02-02T23:29:51.749Z,1.80
2023-02-02T23:35:13.283Z,1.80
2023-02-02T23:40:34.759Z,1.80
2023-02-02T23:45:56.019Z,1.70
2023-02-02T23:51:17.623Z,1.60
2023-02-02T23:56:39.945Z,1.70
